Black, Illinois
Current Conditions -  °F | °C
As of 4:15 AM on Thursday 29 Jan 2015 (Local Time) from KFWC Reporting Station
Scattered Clouds Scattered Clouds  
Wind Chill: 44°   Ceiling: Unl
Heat Index: 49°   Visibility: 10mi
Dew Point: 37°   Wind: 13mph
Humidity: 63%   Direction: 200°SSW
Pressure: 29.81"   Gusts: 16mph
Location:  38.3535°N, 88.085°W
Report Text: KFWC 291015Z AUTO 20011G14KT 10SM SCT120 10/03 A2981 RMK AO1 T00950027
Loading
Personal Weather Stations






























Interactive Weather Map New forecast layout! Learn more

10-Day Weather Forecast

Advertisements
Track Severe Weather on mobile